Portada
METAR-TAF:

METAR-TAF

Aeropuertos :

Tánger, Marruecos

Aeropuerto de Tánger-Ibn Battuta

latitud: 35-44N, longitud: 005-54W, altitud: 19 m

Observación

El informe se hizo hace 27 minutos, a las 02:30 UTC
Viento 2 kt del este
Temperatura 6°C
Humedad 87%
Presión 1022 hPa
Visibilidad: 6000 m
Escasas nubes a una altura de 1600 ft

METAR: GMTT 180230Z 10002KT 6000 FEW016 06/04 Q1022 NOSIG

Hora: 02:57 (02:57 UTC)

Pronóstico

El informe se hizo hace 3 horas y 57 minutos, a las 23:00 UTC
Pronóstico válido del 18 a las 00 UTC al 19 a las 06 UTC
Viento 6 kt del este-sureste
Visibilidad: 8000 m
Escasas nubes a una altura de 1600 ft
Evolucionando progresivamente
del 18 a las 11 UTC al 18 a las 13 UTC
Viento 12 kt del noreste

TAF: GMTT 172300Z 1800/1906 11006KT 8000 FEW016 BECMG 1811/1813 04012KT

Observaciones y pronósticos meteorológicos de más de 4000 aeropuertos (mensajes METAR y TAF).

Los puntos amarillos y rojos representan las estaciones disponibles.

Ponga el ratón en el punto deseado para ver el nombre de la estación.

Haga clic para ver las observaciones y los pronósticos meteorológicos.

Para cambiar el mapa : haga clic en los botones verdes con una cruz de color negro para hacer un zoom, en el botón verde con un guión para alejar o en las flechas verdes para mapas adyacentes.


METAR-TAF: